Latest Coastal Weather Observations for Strahan

IDT60701

Issued at 7:22 am EST Tuesday 16 April 2024 (issued every 10 minutes, with the page automatically refreshed every 10 minutes)

About coastal observations | Map of coastal stations | Coastal observations for TAS | Marine services | Other Formats
Station Details ID: 097072 Name: STRAHAN AERODROME Lat: -42.16 Lon: 145.29 Height: 21.0 m
Data from the previous 72 hours. | See also: Recent months at Strahan
Date/Time
EST
Wind Sea
Height
m
Swell Vis
km
Cloud Weather Temp
°C
Press
MSL
hPa
Rain since
9am
mm
Dir  Spd
kts
Gust
kts
Height
m
Period
s
Dir
16/07:00am SW 6 8 - - - - 9 Partly cloudy - 10.3 1023.1 0.0
16/06:59am SW 6 9 - - - - 9 Cloudy - 10.3 1023.2 0.0
16/06:30am W 11 17 - - - - 5 Partly cloudy - 10.5 1023.2 0.0
16/06:10am WSW 9 16 - - - - 5 Partly cloudy - 10.9 1023.1 0.0
16/06:00am NNW 3 5 - - - - 10 Cloudy Rain 10.6 1022.9 0.0
16/05:30am N 4 6 - - - - 10 Partly cloudy - 10.4 1022.6 0.0
16/05:00am S 4 5 - - - - 10 Partly cloudy - 10.7 1022.5 0.0
16/04:30am S 3 4 - - - - 10 Cloudy - 11.0 1022.3 0.0
16/04:00am S 3 3 - - - - 10 Partly cloudy - 11.1 1022.2 0.0
16/03:30am SW 6 8 - - - - 10 Partly cloudy - 11.6 1022.2 0.0
16/03:00am SW 4 6 - - - - 10 Cloudy Rain 11.5 1022.3 0.0
16/02:34am NW 9 15 - - - - 10 Partly cloudy - 11.4 1022.3 0.0
16/02:30am NW 7 11 - - - - 10 Partly cloudy - 11.3 1022.2 0.0
16/02:20am WNW 8 13 - - - - 5 Partly cloudy - 11.3 1022.5 0.0
16/02:00am NNE 5 6 - - - - 10 Partly cloudy - 10.2 1022.6 0.0
16/01:30am NNE 6 8 - - - - 10 Partly cloudy - 10.4 1022.6 0.0
16/01:00am W 11 17 - - - - 7 Partly cloudy - 10.8 1023.0 0.0
16/12:41am NNW 7 22 - - - - 10 Partly cloudy - 11.4 1022.7 0.0
16/12:30am NNE 4 5 - - - - 10 Cloudy - 11.0 1022.6 0.0
16/12:00am ENE 1 3 - - - - 10 Cloudy - 11.1 1022.6 0.0
 
Date/Time
EST
Wind Sea
Height
m
Swell Vis
km
Cloud Weather Temp
°C
Press
MSL
hPa
Rain since
9am
mm
Dir  Spd
kts
Gust
kts
Height
m
Period
s
Dir
15/11:30pm CALM 0 0 - - - - 10 Partly cloudy - 11.2 1022.6 0.0
15/11:00pm CALM 0 0 - - - - 10 Cloudy - 11.1 1022.6 0.0
15/10:30pm NE 2 4 - - - - 10 Partly cloudy - 11.2 1022.7 0.0
15/10:00pm N 1 4 - - - - 10 Partly cloudy - 11.2 1022.7 0.0
15/09:30pm CALM 0 2 - - - - 10 Partly cloudy - 11.6 1022.7 0.0
15/09:00pm W 1 3 - - - - 10 Cloudy - 11.8 1022.7 0.0
15/08:30pm SW 7 10 - - - - 10 Partly cloudy - 12.1 1022.6 0.0
15/08:00pm NW 3 7 - - - - 10 Partly cloudy - 11.8 1022.4 0.0
15/07:30pm SW 3 5 - - - - 10 Partly cloudy - 12.2 1022.2 0.0
15/07:00pm SW 3 5 - - - - 10 Partly cloudy - 12.6 1021.9 0.0
15/06:30pm W 5 7 - - - - 10 Partly cloudy - 12.6 1021.6 0.0
15/06:00pm WSW 5 6 - - - - 10 Partly cloudy - 11.8 1021.4 0.0
15/05:30pm WSW 5 6 - - - - 10 Partly cloudy - 12.6 1021.2 0.0
15/05:00pm WSW 6 9 - - - - 10 Partly cloudy - 13.6 1020.9 0.0
15/04:30pm W 7 13 - - - - 10 Partly cloudy - 14.0 1020.9 0.0
15/04:00pm WSW 10 15 - - - - 10 Partly cloudy - 13.7 1020.8 0.0
15/03:30pm WSW 10 14 - - - - 10 Cloudy - 14.3 1020.7 0.0
15/03:00pm WSW 10 12 - - - - 10 Cloudy Showers 14.9 1020.4 0.0
15/02:30pm WSW 11 14 - - - - 10 Partly cloudy - 14.8 1020.3 0.0
15/02:00pm W 8 10 - - - - 10 Partly cloudy - 14.8 1020.2 0.0
15/01:30pm W 11 15 - - - - 10 Partly cloudy - 15.6 1020.1 0.0
15/01:00pm W 10 14 - - - - 10 Partly cloudy - 15.9 1020.2 0.0
15/12:30pm WNW 8 10 - - - - 10 Partly cloudy - 15.3 1020.4 0.0
15/12:00pm NW 9 11 - - - - 10 Mostly cloudy Recent precip. 15.3 1020.6 0.0
15/11:30am WNW 9 12 - - - - 10 Partly cloudy - 14.5 1020.7 0.0
15/11:00am WNW 6 9 - - - - 10 Partly cloudy - 14.4 1020.6 0.0
15/10:30am WNW 10 12 - - - - 10 Partly cloudy - 13.8 1020.6 0.0
15/10:29am WNW 10 14 - - - - 10 Partly cloudy - 13.8 1020.6 0.0
15/10:23am WNW 10 14 - - - - 10 Partly cloudy - 14.0 1020.5 0.0
15/10:15am WNW 8 13 - - - - 7 Partly cloudy - 13.7 1020.6 0.0
15/10:07am WNW 11 16 - - - - 5 Partly cloudy - 13.7 1020.6 0.0
15/10:00am WNW 10 13 - - - - 10 Partly cloudy - 15.1 1020.6 0.0
15/09:30am W 10 13 - - - - 10 Partly cloudy - 14.8 1020.6 0.0
15/09:00am WNW 8 12 - - - - 10 Cloudy Showers 14.6 1020.6 0.0
15/08:30am W 12 17 - - - - 10 Partly cloudy - 14.4 1020.6 0.0
15/08:00am W 11 16 - - - - 10 Partly cloudy - 13.9 1020.3 0.0
15/07:30am W 10 15 - - - - 10 Partly cloudy - 14.1 1020.0 0.0
15/07:00am W 13 19 - - - - 10 Partly cloudy - 13.9 1019.8 0.0
15/06:56am W 13 16 - - - - 10 Partly cloudy - 13.8 1019.7 0.0
15/06:30am W 14 23 - - - - 10 Partly cloudy - 13.7 1019.5 0.0
15/06:18am WNW 11 16 - - - - 10 Partly cloudy - 14.0 1019.4 0.0
15/06:03am WNW 9 13 - - - - 10 Partly cloudy - 13.6 1019.3 0.0
15/06:01am WNW 10 13 - - - - 10 Partly cloudy - 13.5 1019.2 0.0
15/06:00am WNW 9 13 - - - - 10 Cloudy Showers 13.5 1019.2 0.0
15/05:30am W 11 17 - - - - 5 Partly cloudy - 13.7 1019.2 0.0
15/05:05am WNW 11 19 - - - - 5 Partly cloudy - 14.1 1019.0 0.0
15/05:00am WNW 12 19 - - - - 10 Partly cloudy - 14.0 1019.0 0.0
15/04:56am WNW 12 17 - - - - 10 Partly cloudy - 14.1 1019.0 0.0
15/04:37am WNW 13 24 - - - - 5 Partly cloudy - 14.3 1018.9 0.0
15/04:36am WNW 13 21 - - - - 6 Partly cloudy - 14.4 1019.0 0.0
15/04:30am WNW 12 17 - - - - 10 Partly cloudy - 14.6 1018.8 0.0
15/04:18am WNW 13 19 - - - - 10 Partly cloudy - 14.4 1018.9 0.0
15/04:13am WNW 11 15 - - - - 10 Partly cloudy - 14.3 1018.9 0.0
15/04:00am WNW 15 23 - - - - 4 Partly cloudy - 14.1 1018.9 0.0
15/03:42am NW 10 14 - - - - 5 Partly cloudy - 14.7 1018.9 0.0
15/03:41am NW 10 14 - - - - 6 Partly cloudy - 14.7 1018.9 0.0
15/03:30am NW 11 15 - - - - 10 Partly cloudy - 14.8 1018.7 0.0
15/03:00am NW 11 14 - - - - 10 Cloudy Rain 14.5 1018.9 0.0
15/02:30am NW 9 14 - - - - 10 Partly cloudy - 14.4 1019.4 0.0
15/02:16am NW 10 14 - - - - 10 Partly cloudy - 14.2 1019.6 0.0
15/02:00am NW 11 17 - - - - 6 Partly cloudy - 14.5 1019.8 0.0
15/01:49am NW 13 17 - - - - 5 Partly cloudy - 14.6 1019.9 0.0
15/01:30am NNW 9 12 - - - - 10 Partly cloudy - 14.7 1019.9 0.0
15/01:00am NW 11 15 - - - - 10 Partly cloudy - 14.3 1020.0 0.0
15/12:30am NNW 8 11 - - - - 10 Partly cloudy - 14.4 1020.0 0.0
15/12:00am N 7 8 - - - - 10 Mostly cloudy - 13.8 1020.1 0.0
 
Date/Time
EST
Wind Sea
Height
m
Swell Vis
km
Cloud Weather Temp
°C
Press
MSL
hPa
Rain since
9am
mm
Dir  Spd
kts
Gust
kts
Height
m
Period
s
Dir
14/11:30pm N 6 8 - - - - 10 Partly cloudy - 13.8 1020.2 0.0
14/11:00pm N 7 9 - - - - 10 Partly cloudy - 13.7 1020.3 0.0
14/10:34pm N 6 8 - - - - 10 Partly cloudy - 13.6 1020.3 0.0
14/10:30pm N 6 7 - - - - 10 Partly cloudy - 13.6 1020.4 0.0
14/10:05pm N 7 9 - - - - 10 Partly cloudy - 13.7 1020.4 0.0
14/10:00pm N 7 9 - - - - 10 Partly cloudy - 13.6 1020.3 0.0
14/09:30pm N 7 9 - - - - 10 Partly cloudy - 13.6 1020.2 0.0
14/09:16pm N 8 11 - - - - 10 Partly cloudy - 13.7 1020.2 0.0
14/09:00pm NNW 8 11 - - - - 10 Cloudy - 13.9 1020.2 0.0
14/08:47pm NNW 6 8 - - - - 10 Partly cloudy - 13.9 1020.3 0.0
14/08:30pm NW 6 8 - - - - 10 Partly cloudy - 13.8 1020.3 0.0
14/08:04pm WNW 8 11 - - - - 10 Partly cloudy - 13.8 1020.3 0.0
14/08:00pm WNW 8 11 - - - - 10 Partly cloudy - 13.9 1020.3 0.0
14/07:30pm N 5 7 - - - - 10 Partly cloudy - 13.8 1020.3 0.0
14/07:14pm N 6 8 - - - - 10 Partly cloudy - 13.8 1020.2 0.0
14/07:00pm NNW 5 6 - - - - 10 Partly cloudy - 13.6 1020.3 0.0
14/06:40pm NNW 7 10 - - - - 10 Partly cloudy - 13.7 1020.1 0.0
14/06:30pm NW 10 13 - - - - 5 Partly cloudy - 13.7 1020.1 0.0
14/06:20pm NW 9 15 - - - - 5 Partly cloudy - 14.0 1020.1 0.0
14/06:00pm NW 7 10 - - - - 10 Cloudy - 14.6 1019.8 0.0
14/05:30pm NW 9 13 - - - - 10 Partly cloudy - 14.8 1019.7 0.0
14/05:00pm NW 8 11 - - - - 10 Partly cloudy - 15.1 1019.5 0.0
14/04:30pm NW 9 13 - - - - 10 Partly cloudy - 15.3 1019.3 0.0
14/04:00pm NW 10 14 - - - - 10 Partly cloudy - 15.7 1019.4 0.0
14/03:30pm NW 11 14 - - - - 10 Partly cloudy - 15.6 1019.3 0.0
14/03:00pm NW 9 12 - - - - 10 Cloudy - 15.4 1019.4 0.0
14/02:32pm W 8 13 - - - - 10 Partly cloudy - 15.1 1019.5 0.0
14/02:30pm W 9 13 - - - - 10 Partly cloudy - 15.3 1019.5 0.0
14/02:00pm WNW 14 20 - - - - 10 Partly cloudy - 15.4 1019.5 0.0
14/01:30pm NW 11 15 - - - - 10 Partly cloudy - 15.3 1019.7 0.0
14/01:26pm NW 9 12 - - - - 10 Partly cloudy - 15.6 1019.7 0.0
14/01:21pm NW 9 13 - - - - 10 Partly cloudy - 15.3 1019.8 0.0
14/01:20pm NW 9 13 - - - - 10 Partly cloudy - 15.1 1019.8 0.0
14/01:00pm WNW 12 17 - - - - 4 Partly cloudy - 14.6 1020.0 0.0
14/12:58pm WNW 12 17 - - - - 5 Partly cloudy - 14.5 1020.0 0.0
14/12:40pm NW 11 15 - - - - 10 Partly cloudy - 16.3 1019.9 0.0
14/12:30pm NW 10 13 - - - - 10 Partly cloudy - 16.6 1020.1 0.0
14/12:00pm NW 10 13 - - - - 10 Cloudy Recent precip. 15.8 1020.4 0.0
14/11:30am NW 9 12 - - - - 10 Partly cloudy - 15.7 1020.6 0.0
14/11:00am NW 10 13 - - - - 10 Partly cloudy - 15.4 1020.6 0.0
14/10:30am WNW 9 12 - - - - 10 Partly cloudy - 16.1 1020.6 0.0
14/10:00am WNW 8 11 - - - - 10 Partly cloudy - 15.4 1020.6 0.0
14/09:55am WNW 8 10 - - - - 10 Partly cloudy - 15.1 1020.6 0.0
14/09:30am WNW 8 11 - - - - 10 Partly cloudy - 14.8 1020.7 0.0
14/09:00am WNW 7 9 - - - - 10 Cloudy - 14.7 1020.7 0.0
14/08:30am NW 7 9 - - - - 10 Partly cloudy - 14.5 1020.6 0.0
14/08:01am WNW 7 11 - - - - 10 Partly cloudy - 14.3 1020.5 0.0
14/08:00am WNW 7 11 - - - - 10 Partly cloudy - 14.3 1020.5 0.0
14/07:50am WNW 8 11 - - - - 5 Partly cloudy - 14.2 1020.4 0.0
14/07:46am WNW 7 11 - - - - 10 Partly cloudy - 14.2 1020.3 0.0
14/07:30am WNW 5 7 - - - - 3 Partly cloudy - 14.0 1020.2 0.0
14/07:16am N 6 7 - - - - 5 Partly cloudy - 13.9 1020.1 0.0
14/07:00am WNW 5 6 - - - - 10 Cloudy - 13.8 1020.1 0.0
14/06:30am WNW 3 4 - - - - 10 Partly cloudy - 13.7 1020.0 0.0
14/06:18am WNW 4 5 - - - - 10 Partly cloudy - 13.7 1019.9 0.0
14/06:00am WNW 4 6 - - - - 10 Cloudy - 13.8 1019.9 0.0
14/05:52am WNW 5 6 - - - - 10 Partly cloudy - 13.7 1019.9 0.0
14/05:30am WNW 5 6 - - - - 10 Partly cloudy - 13.8 1019.8 0.0
14/05:00am WNW 7 10 - - - - 10 Partly cloudy - 13.8 1019.7 0.0
14/04:41am WNW 8 11 - - - - 10 Partly cloudy - 13.7 1019.6 0.0
14/04:33am WNW 9 12 - - - - 10 Partly cloudy - 13.7 1019.6 0.0
14/04:30am WNW 9 12 - - - - 10 Partly cloudy - 13.7 1019.6 0.0
14/04:16am WNW 8 15 - - - - 5 Partly cloudy - 13.8 1019.7 0.0
14/04:00am WNW 5 8 - - - - 10 Partly cloudy - 13.8 1019.7 0.0
14/03:30am NW 4 5 - - - - 10 Partly cloudy - 13.3 1019.7 0.0
14/03:00am NW 4 5 - - - - 10 Cloudy - 13.1 1020.0 0.0
14/02:58am NW 4 5 - - - - 10 Partly cloudy - 13.1 1020.0 0.0
14/02:30am NW 5 6 - - - - 10 Partly cloudy - 13.2 1020.2 0.0
14/02:09am WNW 6 8 - - - - 10 Partly cloudy - 13.5 1020.3 0.0
14/02:00am WNW 8 12 - - - - 10 Partly cloudy - 13.6 1020.4 0.0
14/01:49am W 8 14 - - - - 10 Partly cloudy - 13.8 1020.4 0.0
14/01:30am W 9 11 - - - - 4 Partly cloudy - 13.8 1020.4 0.0
14/01:27am W 9 11 - - - - 5 Partly cloudy - 13.8 1020.4 0.0
14/01:00am NW 7 8 - - - - 10 Partly cloudy - 13.9 1020.4 0.0
14/12:30am WNW 7 8 - - - - 10 Partly cloudy - 14.4 1020.4 0.0
14/12:00am WNW 6 8 - - - - 10 Cloudy - 14.3 1020.5 0.0
 
Date/Time
EST
Wind Sea
Height
m
Swell Vis
km
Cloud Weather Temp
°C
Press
MSL
hPa
Rain since
9am
mm
Dir  Spd
kts
Gust
kts
Height
m
Period
s
Dir
13/11:54pm WNW 6 8 - - - - 10 Partly cloudy - 14.2 1020.5 0.0
13/11:30pm WNW 7 10 - - - - 10 Partly cloudy - 14.3 1020.5 0.0
13/11:00pm NW 6 8 - - - - 10 Partly cloudy - 14.3 1020.5 0.0
13/10:56pm NW 7 9 - - - - 10 Partly cloudy - 14.2 1020.5 0.0
13/10:30pm NW 10 17 - - - - 4 Partly cloudy - 14.1 1020.6 0.0
13/10:00pm N 7 9 - - - - 3 Partly cloudy - 14.0 1020.6 0.0
13/09:48pm N 6 8 - - - - 5 Partly cloudy - 14.0 1020.7 0.0
13/09:46pm N 6 8 - - - - 6 Partly cloudy - 14.0 1020.7 0.0
13/09:35pm N 6 8 - - - - 5 Partly cloudy - 14.0 1020.7 0.0
13/09:32pm N 6 8 - - - - 6 Partly cloudy - 14.0 1020.7 0.0
13/09:30pm N 7 8 - - - - 6 Partly cloudy - 14.0 1020.7 0.0
13/09:00pm NNW 7 10 - - - - 9 Cloudy Rain 14.0 1020.7 0.0
13/08:30pm N 9 12 - - - - 7 Partly cloudy - 14.1 1020.7 0.0
13/08:16pm NNW 8 10 - - - - 10 Partly cloudy - 14.2 1020.6 0.0
13/08:00pm N 9 12 - - - - 5 Partly cloudy - 14.2 1020.6 0.0
13/07:43pm NNW 9 12 - - - - 5 Partly cloudy - 14.0 1020.6 0.0
13/07:40pm NNW 8 11 - - - - 10 Partly cloudy - 14.1 1020.6 0.0
13/07:30pm NNW 7 11 - - - - 10 Partly cloudy - 14.1 1020.6 0.0
13/07:25pm NNW 7 11 - - - - 10 Partly cloudy - 14.0 1020.6 0.0
13/07:21pm NW 7 11 - - - - 10 Partly cloudy - 14.0 1020.6 0.0
13/07:00pm NW 8 12 - - - - 2 Partly cloudy - 14.2 1020.6 0.0
13/06:45pm NW 8 10 - - - - 2 Partly cloudy - 14.1 1020.5 0.0
13/06:30pm NW 11 17 - - - - 4 Partly cloudy - 14.2 1020.3 0.0
13/06:28pm NW 10 17 - - - - 5 Partly cloudy - 14.2 1020.3 0.0
13/06:00pm NNW 7 8 - - - - 10 Cloudy - 14.7 1019.9 0.0
13/05:33pm NW 8 11 - - - - 10 Partly cloudy - 14.8 1019.7 0.0
13/05:30pm NW 9 11 - - - - 10 Partly cloudy - 14.8 1019.7 0.0
13/05:17pm NNW 7 10 - - - - 10 Partly cloudy - 15.0 1019.6 0.0
13/05:00pm NNW 8 11 - - - - 10 Partly cloudy - 15.2 1019.6 0.0
13/04:54pm NW 9 11 - - - - 10 Partly cloudy - 15.2 1019.5 0.0
13/04:42pm NW 9 13 - - - - 10 Partly cloudy - 15.2 1019.5 0.0
13/04:37pm NW 9 11 - - - - 10 Partly cloudy - 15.2 1019.5 0.0
13/04:30pm NW 11 14 - - - - 10 Partly cloudy - 15.3 1019.5 0.0
13/04:00pm NW 8 11 - - - - 10 Partly cloudy - 15.6 1019.5 0.0
13/03:59pm NW 8 11 - - - - 10 Partly cloudy - 15.6 1019.5 0.0
13/03:30pm NW 7 10 - - - - 10 Partly cloudy - 15.4 1019.6 0.0
13/03:15pm WNW 10 14 - - - - 10 Partly cloudy - 15.3 1019.7 0.0
13/03:00pm NW 8 13 - - - - 10 Cloudy Showers 15.3 1019.7 0.0
13/02:30pm NW 9 12 - - - - 10 Partly cloudy - 16.1 1019.6 0.0
13/02:19pm WNW 9 13 - - - - 10 Partly cloudy - 15.7 1019.7 0.0
13/02:00pm W 10 13 - - - - 10 Partly cloudy - 15.4 1019.7 0.0
13/01:58pm WNW 10 13 - - - - 10 Partly cloudy - 15.7 1019.7 0.0
13/01:30pm WNW 9 12 - - - - 10 Partly cloudy - 15.8 1019.8 0.0
13/01:00pm WNW 10 14 - - - - 10 Partly cloudy - 15.1 1020.1 0.0
13/12:59pm WNW 10 14 - - - - 10 Partly cloudy - 15.1 1020.1 0.0
13/12:30pm WNW 10 13 - - - - 10 Partly cloudy - 15.0 1020.4 0.0
13/12:25pm WNW 8 12 - - - - 10 Partly cloudy - 15.2 1020.4 0.0
13/12:24pm WNW 8 11 - - - - 10 Partly cloudy - 15.2 1020.5 0.0
13/12:08pm WNW 8 14 - - - - 10 Partly cloudy - 14.7 1020.5 0.0
13/12:00pm NW 7 10 - - - - 10 Mostly cloudy Showers 15.2 1020.6 0.0
13/11:30am WNW 6 9 - - - - 10 Partly cloudy - 15.0 1020.7 0.0
13/11:08am W 9 12 - - - - 10 Partly cloudy - 14.3 1020.7 0.0
13/11:00am WNW 9 12 - - - - 10 Partly cloudy - 14.2 1020.6 0.0
13/10:48am WNW 11 17 - - - - 10 Partly cloudy - 14.1 1020.5 0.0
13/10:30am NW 9 12 - - - - 10 Partly cloudy - 14.9 1020.4 0.0
13/10:00am N 5 7 - - - - 10 Partly cloudy - 14.1 1020.4 0.0
13/09:49am WNW 4 6 - - - - 10 Partly cloudy - 14.0 1020.4 0.0
13/09:43am WNW 4 6 - - - - 10 Partly cloudy - 13.9 1020.4 0.0
13/09:30am WNW 9 12 - - - - 4 Partly cloudy - 13.7 1020.5 0.0
13/09:29am WNW 9 13 - - - - 4 Partly cloudy - 13.7 1020.5 0.0
13/09:25am WNW 9 14 - - - - 5 Partly cloudy - 13.8 1020.5 0.0
13/09:00am NW 6 8 - - - - 10 Cloudy - 14.2 1020.1 0.0
13/08:55am NW 7 8 - - - - 10 Partly cloudy - 14.1 1020.1 0.0
13/08:42am WNW 7 10 - - - - 10 Partly cloudy - 14.1 1020.0 0.0
13/08:30am WNW 7 9 - - - - 10 Partly cloudy - 14.1 1019.9 0.0
13/08:07am WNW 8 10 - - - - 10 Partly cloudy - 14.0 1019.8 0.0
13/08:00am WNW 8 11 - - - - 10 Partly cloudy - 13.9 1019.8 0.0
13/07:43am NW 5 7 - - - - 10 Partly cloudy - 13.4 1019.7 0.0
13/07:30am NW 5 7 - - - - 10 Partly cloudy - 13.2 1019.5 0.0

Other formats

Comma delimited format used in spreadsheet applications
http://www.bom.gov.au/fwo/IDT60701/IDT60701.94956.axf

JavaScript Object Notation format (JSON) in row-major order
http://www.bom.gov.au/fwo/IDT60701/IDT60701.94956.json

Data quality

Most of these data are generated automatically and are frequently updated. Quality checks on data are not normally performed. It is possible for incorrect values to appear. Refer to information at About Latest Weather Observations and please check the disclaimer before using these data.